createdAt,value
2023-02-02T00:00:00.940Z,61.32
2023-02-02T00:04:04.616Z,61.94
2023-02-02T00:08:08.931Z,61.72
2023-02-02T00:12:12.566Z,62.06
2023-02-02T00:16:40.693Z,62.09
2023-02-02T00:20:45.084Z,62.43
2023-02-02T00:24:50.147Z,62.35
2023-02-02T00:28:53.167Z,62.56
2023-02-02T00:32:56.270Z,62.81
2023-02-02T00:36:59.511Z,62.33
2023-02-02T00:41:04.000Z,63.00
2023-02-02T00:45:19.880Z,62.74
2023-02-02T00:49:23.277Z,62.61
2023-02-02T00:53:26.456Z,63.41
2023-02-02T00:57:31.483Z,63.56
2023-02-02T01:01:34.479Z,63.77
2023-02-02T01:05:38.558Z,63.95
2023-02-02T01:09:41.474Z,63.94
2023-02-02T01:13:46.093Z,63.32
2023-02-02T01:17:49.384Z,63.82
2023-02-02T01:21:52.782Z,64.71
2023-02-02T01:25:57.087Z,64.74
2023-02-02T01:30:01.562Z,64.28
2023-02-02T01:34:05.069Z,64.90
2023-02-02T01:38:08.153Z,64.84
2023-02-02T01:42:14.668Z,64.27
2023-02-02T01:46:20.825Z,64.06
2023-02-02T01:50:27.431Z,63.99
2023-02-02T01:54:36.648Z,63.40
2023-02-02T01:58:43.510Z,63.23
2023-02-02T02:02:50.447Z,63.44
2023-02-02T02:06:53.995Z,63.99
2023-02-02T02:10:57.363Z,63.46
2023-02-02T02:15:17.697Z,63.59
2023-02-02T02:20:20.848Z,64.58
2023-02-02T02:25:23.217Z,64.67
2023-02-02T02:29:47.629Z,65.07
2023-02-02T02:34:01.153Z,65.41
2023-02-02T02:38:13.856Z,65.94
2023-02-02T02:42:21.419Z,65.07
2023-02-02T02:46:25.467Z,66.20
2023-02-02T02:50:30.160Z,63.98
2023-02-02T02:54:37.948Z,63.09
2023-02-02T02:58:51.731Z,63.86
2023-02-02T03:03:04.797Z,64.63
2023-02-02T03:07:16.664Z,65.42
2023-02-02T03:11:20.116Z,66.62
2023-02-02T03:15:23.791Z,67.67
2023-02-02T03:19:27.283Z,69.79
2023-02-02T03:23:32.208Z,70.02
2023-02-02T03:27:35.140Z,70.66
2023-02-02T03:31:38.884Z,71.52
2023-02-02T03:35:41.872Z,71.26
2023-02-02T03:39:46.510Z,71.60
2023-02-02T03:43:49.807Z,71.51
2023-02-02T03:47:53.005Z,71.67
2023-02-02T03:51:56.140Z,72.02
2023-02-02T03:56:00.682Z,71.96
2023-02-02T04:00:03.765Z,72.21
2023-02-02T04:04:07.216Z,71.81
2023-02-02T04:08:10.481Z,72.28
2023-02-02T04:12:39.563Z,71.67
2023-02-02T04:16:42.465Z,72.09
2023-02-02T04:20:45.387Z,72.20
2023-02-02T04:24:48.537Z,72.19
2023-02-02T04:28:53.193Z,72.10
2023-02-02T04:32:56.700Z,72.26
2023-02-02T04:37:00.199Z,72.38
2023-02-02T04:41:07.772Z,72.30
2023-02-02T04:45:13.343Z,71.97
2023-02-02T04:49:16.881Z,72.55
2023-02-02T04:53:20.138Z,72.45
2023-02-02T04:57:23.100Z,72.03
2023-02-02T05:01:27.556Z,72.27
2023-02-02T05:05:30.985Z,72.81
2023-02-02T05:09:33.950Z,71.98
2023-02-02T05:13:37.581Z,72.59
2023-02-02T05:17:42.178Z,72.91
2023-02-02T05:21:46.311Z,72.61
2023-02-02T05:25:53.934Z,72.74
2023-02-02T05:30:00.270Z,72.98
2023-02-02T05:34:07.123Z,72.87
2023-02-02T05:38:10.452Z,73.17
2023-02-02T05:42:14.062Z,73.25
2023-02-02T05:46:17.606Z,73.49
2023-02-02T05:50:22.104Z,73.71
2023-02-02T05:54:25.815Z,74.16
2023-02-02T05:58:29.432Z,73.78
2023-02-02T06:02:32.377Z,73.80
2023-02-02T06:06:38.454Z,73.29
2023-02-02T06:10:42.065Z,73.40
2023-02-02T06:14:45.160Z,73.52
2023-02-02T06:18:49.239Z,73.74
2023-02-02T06:22:53.536Z,73.79
2023-02-02T06:26:56.771Z,73.42
2023-02-02T06:31:06.125Z,73.62
2023-02-02T06:35:10.302Z,74.01
2023-02-02T06:39:14.863Z,74.33
2023-02-02T06:43:17.923Z,74.06
2023-02-02T06:47:21.213Z,74.49
2023-02-02T06:51:24.420Z,74.83
2023-02-02T06:55:28.966Z,74.95
2023-02-02T06:59:32.369Z,74.71
2023-02-02T07:03:36.179Z,75.02
2023-02-02T07:07:39.375Z,74.58
2023-02-02T07:11:44.763Z,74.76
2023-02-02T07:15:49.027Z,74.42
2023-02-02T07:19:52.333Z,74.88
2023-02-02T07:23:55.455Z,74.87
2023-02-02T07:28:00.010Z,74.86
2023-02-02T07:32:03.012Z,74.86
2023-02-02T07:36:06.559Z,74.32
2023-02-02T07:40:11.487Z,74.11
2023-02-02T07:44:16.871Z,73.78
2023-02-02T07:48:20.653Z,73.63
2023-02-02T07:52:24.090Z,73.75
2023-02-02T07:56:29.008Z,73.21
2023-02-02T08:00:33.978Z,73.27
2023-02-02T08:04:37.267Z,73.13
2023-02-02T08:08:40.547Z,73.03
2023-02-02T08:12:43.738Z,72.93
2023-02-02T08:16:48.431Z,72.53
2023-02-02T08:20:52.757Z,72.53
2023-02-02T08:24:56.086Z,72.87
2023-02-02T08:29:01.650Z,72.76
2023-02-02T08:33:06.166Z,72.54
2023-02-02T08:37:09.737Z,73.20
2023-02-02T08:41:14.541Z,72.66
2023-02-02T08:46:02.397Z,73.10
2023-02-02T08:49:45.393Z,72.87
2023-02-02T08:53:49.360Z,72.73
2023-02-02T08:57:52.706Z,72.73
2023-02-02T09:01:56.068Z,72.54
2023-02-02T09:06:05.995Z,72.78
2023-02-02T09:10:09.683Z,72.53
2023-02-02T09:14:14.667Z,72.61
2023-02-02T09:18:18.248Z,72.43
2023-02-02T09:22:22.973Z,72.66
2023-02-02T09:26:28.617Z,72.79
2023-02-02T09:30:31.635Z,72.31
2023-02-02T09:34:34.749Z,72.85
2023-02-02T09:38:40.290Z,72.69
2023-02-02T09:42:56.952Z,72.51
2023-02-02T09:47:11.091Z,72.68
2023-02-02T09:51:20.085Z,72.83
2023-02-02T09:55:31.978Z,72.48
2023-02-02T09:59:38.436Z,72.81
2023-02-02T10:03:46.856Z,72.88
2023-02-02T10:07:54.290Z,73.09
2023-02-02T10:12:05.517Z,73.29
2023-02-02T10:16:18.521Z,73.01
2023-02-02T10:25:56.458Z,73.09
2023-02-02T10:30:02.540Z,72.83
2023-02-02T10:34:14.972Z,73.08
2023-02-02T10:38:26.156Z,72.78
2023-02-02T10:42:42.419Z,73.64
2023-02-02T10:46:50.237Z,73.67
2023-02-02T10:50:56.853Z,73.13
2023-02-02T10:55:04.763Z,73.34
2023-02-02T10:59:13.400Z,73.36
2023-02-02T11:03:20.312Z,72.78
2023-02-02T11:07:23.687Z,72.68
2023-02-02T11:11:29.607Z,72.90
2023-02-02T11:15:33.341Z,72.64
2023-02-02T11:19:39.651Z,72.55
2023-02-02T11:23:42.987Z,72.01
2023-02-02T11:27:47.167Z,72.58
2023-02-02T11:31:50.586Z,72.08
2023-02-02T11:35:57.202Z,72.31
2023-02-02T11:40:24.917Z,71.72
2023-02-02T11:44:30.445Z,71.60
2023-02-02T11:48:36.251Z,71.76
2023-02-02T11:52:40.805Z,71.66
2023-02-02T11:56:44.805Z,72.24
2023-02-02T12:00:49.685Z,71.60
2023-02-02T12:04:55.381Z,71.96
2023-02-02T12:09:02.047Z,71.68
2023-02-02T12:13:11.235Z,72.09
2023-02-02T12:17:30.420Z,72.33
2023-02-02T12:21:42.113Z,72.22
2023-02-02T12:26:11.912Z,73.08
2023-02-02T12:30:35.212Z,73.13
2023-02-02T12:34:49.134Z,73.74
2023-02-02T12:39:21.457Z,73.29
2023-02-02T12:43:34.270Z,73.70
2023-02-02T12:47:42.899Z,73.75
2023-02-02T12:52:18.133Z,73.48
2023-02-02T12:56:29.434Z,73.41
2023-02-02T13:01:17.380Z,73.36
2023-02-02T13:05:52.635Z,73.67
2023-02-02T13:10:07.778Z,73.53
2023-02-02T13:14:14.259Z,73.35
2023-02-02T13:18:23.013Z,73.64
2023-02-02T13:22:31.120Z,73.81
2023-02-02T13:26:40.630Z,73.48
2023-02-02T13:30:47.098Z,73.90
2023-02-02T13:34:54.896Z,73.84
2023-02-02T13:39:03.746Z,73.87
2023-02-02T13:43:20.114Z,73.24
2023-02-02T13:47:29.909Z,73.65
2023-02-02T13:52:12.682Z,73.69
2023-02-02T13:56:30.991Z,73.91
2023-02-02T14:00:38.496Z,73.27
2023-02-02T14:04:41.801Z,73.80
2023-02-02T14:08:48.987Z,73.54
2023-02-02T14:12:54.785Z,73.62
2023-02-02T14:16:57.874Z,73.45
2023-02-02T14:21:01.368Z,73.99
2023-02-02T14:25:04.376Z,73.71
2023-02-02T14:29:59.192Z,73.83
2023-02-02T14:34:28.123Z,74.21
2023-02-02T14:39:09.984Z,74.19
2023-02-02T14:43:43.179Z,74.26
2023-02-02T14:47:54.103Z,74.29
2023-02-02T14:52:03.353Z,73.99
2023-02-02T14:56:10.295Z,73.80
2023-02-02T15:00:23.511Z,74.06
2023-02-02T15:04:30.525Z,74.00
2023-02-02T15:08:33.506Z,73.84
2023-02-02T15:12:40.152Z,73.74
2023-02-02T15:16:44.442Z,73.98
2023-02-02T15:20:51.436Z,74.14
2023-02-02T15:24:55.895Z,73.90
2023-02-02T15:29:02.121Z,73.95
2023-02-02T15:33:13.912Z,73.85
2023-02-02T15:37:23.692Z,73.91
2023-02-02T15:41:32.759Z,74.10
2023-02-02T15:45:43.840Z,74.00
2023-02-02T15:49:47.614Z,74.24
2023-02-02T15:53:53.470Z,73.95
2023-02-02T15:57:56.438Z,73.92
2023-02-02T16:02:15.772Z,74.34
2023-02-02T16:06:20.018Z,74.23
2023-02-02T16:10:25.179Z,74.34
2023-02-02T16:14:28.729Z,73.83
2023-02-02T16:18:32.381Z,74.46
2023-02-02T16:22:37.771Z,74.26
2023-02-02T16:26:43.316Z,74.38
2023-02-02T16:30:46.864Z,74.59
2023-02-02T16:45:48.823Z,74.79
2023-02-02T16:49:52.137Z,74.55
2023-02-02T16:54:01.459Z,74.35
2023-02-02T16:58:05.386Z,74.88
2023-02-02T17:02:22.654Z,74.39
2023-02-02T17:06:42.050Z,74.59
2023-02-02T17:11:06.377Z,74.18
2023-02-02T17:15:32.081Z,74.80
2023-02-02T17:19:38.002Z,74.53
2023-02-02T17:23:41.933Z,74.39
2023-02-02T17:27:46.199Z,74.76
2023-02-02T17:31:49.517Z,74.98
2023-02-02T17:35:56.326Z,74.93
2023-02-02T17:39:59.725Z,74.53
2023-02-02T17:44:04.864Z,74.97
2023-02-02T17:48:08.578Z,75.21
2023-02-02T17:52:14.759Z,74.86
2023-02-02T17:56:18.225Z,75.39
2023-02-02T18:00:24.100Z,74.94
2023-02-02T18:04:27.960Z,75.29
2023-02-02T18:08:33.439Z,75.55
2023-02-02T18:12:36.737Z,75.44
2023-02-02T18:16:39.896Z,74.93
2023-02-02T18:20:43.984Z,75.14
2023-02-02T18:24:48.828Z,75.11
2023-02-02T18:28:53.645Z,75.29
2023-02-02T18:32:57.254Z,74.94
2023-02-02T18:37:00.557Z,74.96
2023-02-02T18:41:05.890Z,75.12
2023-02-02T18:45:10.367Z,74.82
2023-02-02T18:49:13.689Z,75.25
2023-02-02T18:53:18.090Z,74.73
2023-02-02T18:57:23.102Z,74.73
2023-02-02T19:01:26.865Z,74.71
2023-02-02T19:05:47.791Z,75.22
2023-02-02T19:13:55.384Z,75.16
2023-02-02T19:17:58.375Z,75.06
2023-02-02T19:22:04.951Z,75.42
2023-02-02T19:26:20.527Z,75.27
2023-02-02T19:30:25.578Z,75.07
2023-02-02T19:34:28.915Z,74.69
2023-02-02T19:38:32.036Z,74.64
2023-02-02T19:42:36.211Z,74.55
2023-02-02T19:46:45.072Z,74.69
2023-02-02T19:50:48.536Z,74.83
2023-02-02T19:54:52.145Z,74.79
2023-02-02T19:58:55.396Z,74.85
2023-02-02T20:03:02.269Z,74.51
2023-02-02T20:07:13.542Z,74.70
2023-02-02T20:11:32.689Z,74.42
2023-02-02T20:15:37.918Z,74.31
2023-02-02T20:19:45.621Z,74.59
2023-02-02T20:23:48.892Z,74.19
2023-02-02T20:27:52.530Z,73.90
2023-02-02T20:31:57.200Z,74.00
2023-02-02T20:36:03.503Z,74.53
2023-02-02T20:40:22.789Z,73.96
2023-02-02T20:44:26.956Z,73.99
2023-02-02T20:48:30.667Z,74.26
2023-02-02T20:52:34.962Z,73.93
2023-02-02T20:56:38.684Z,74.58
2023-02-02T21:00:42.002Z,74.50
2023-02-02T21:04:47.335Z,74.42
2023-02-02T21:08:53.465Z,74.12
2023-02-02T21:12:56.753Z,73.75
2023-02-02T21:17:13.705Z,73.87
2023-02-02T21:21:19.390Z,73.95
2023-02-02T21:25:24.507Z,73.83
2023-02-02T21:29:28.723Z,73.71
2023-02-02T21:33:31.860Z,74.15
2023-02-02T21:37:36.644Z,74.31
2023-02-02T21:41:41.471Z,74.42
2023-02-02T21:45:46.306Z,74.00
2023-02-02T21:49:49.618Z,74.50
2023-02-02T21:53:53.118Z,74.64
2023-02-02T21:58:00.070Z,74.71
2023-02-02T22:02:28.647Z,74.49
2023-02-02T22:06:36.198Z,74.50
2023-02-02T22:10:40.945Z,74.52
2023-02-02T22:14:47.102Z,74.64
2023-02-02T22:18:50.028Z,74.61
2023-02-02T22:22:53.721Z,74.69
2023-02-02T22:26:56.830Z,74.44
2023-02-02T22:31:01.425Z,74.55
2023-02-02T22:35:04.941Z,74.67
2023-02-02T22:39:08.157Z,74.81
2023-02-02T22:43:13.624Z,74.38
2023-02-02T22:47:17.864Z,74.42
2023-02-02T22:51:21.356Z,75.10
2023-02-02T22:55:24.276Z,74.64
2023-02-02T22:59:27.642Z,74.44
2023-02-02T23:03:31.865Z,75.00
2023-02-02T23:07:35.480Z,74.51
2023-02-02T23:11:38.491Z,74.33
2023-02-02T23:15:41.420Z,74.51
2023-02-02T23:19:45.855Z,74.33
2023-02-02T23:23:49.482Z,74.61
2023-02-02T23:27:52.992Z,74.14
2023-02-02T23:31:56.177Z,74.65
2023-02-02T23:36:00.809Z,74.38
2023-02-02T23:40:07.604Z,74.43
2023-02-02T23:44:10.761Z,74.33
2023-02-02T23:48:14.324Z,74.83
2023-02-02T23:52:20.312Z,74.79
2023-02-02T23:56:23.808Z,74.28
